Time;durP1;ratioP1;P1;durP2;ratioP2;P2;SDS_P1;SDS_P2;PMS_P1;PMS_P2;Temp;Humidity;BMP_temperature;BMP_pressure;BME280_temperature;BME280_humidity;BME280_pressure;Samples;Min_cycle;Max_cycle;Signal;HPM_P1;HPM_P2
2022/01/04 00:00:57;;;;;;;22.45;5.75;;;;;;;7.48;100.00;100260.84;5052300;28;20061;-77
2022/01/04 00:03:22;;;;;;;27.38;6.32;;;;;;;7.48;100.00;100267.00;5053889;28;20063;-77
2022/01/04 00:05:47;;;;;;;31.70;6.68;;;;;;;7.51;100.00;100255.28;5052251;28;20039;-77
2022/01/04 00:08:13;;;;;;;23.58;6.63;;;;;;;7.49;100.00;100247.47;5053562;28;20036;-77
2022/01/04 00:10:39;;;;;;;25.25;6.57;;;;;;;7.48;100.00;100247.59;5053356;28;20065;-77
2022/01/04 00:13:24;;;;;;;25.52;6.28;;;;;;;7.45;100.00;100245.22;5053494;28;20051;-77
2022/01/04 00:15:51;;;;;;;28.70;6.72;;;;;;;7.42;100.00;100235.78;5053744;28;20039;-77
2022/01/04 00:18:18;;;;;;;29.52;6.68;;;;;;;7.43;100.00;100231.31;5053155;28;20448;-77
2022/01/04 00:20:43;;;;;;;32.33;7.00;;;;;;;7.41;100.00;100226.13;5053136;28;20041;-78
2022/01/04 00:23:08;;;;;;;20.48;6.93;;;;;;;7.45;100.00;100221.41;5053322;28;20095;-77
2022/01/04 00:25:34;;;;;;;31.73;7.75;;;;;;;7.43;100.00;100215.41;5052066;28;20464;-77
2022/01/04 00:28:01;;;;;;;31.17;6.55;;;;;;;7.42;100.00;100206.66;5053532;28;20036;-77
2022/01/04 00:30:28;;;;;;;22.48;6.55;;;;;;;7.43;100.00;100210.94;5052915;28;20400;-77
2022/01/04 00:32:57;;;;;;;22.33;6.50;;;;;;;7.45;100.00;100202.88;5052979;28;20048;-77
2022/01/04 00:35:22;;;;;;;21.95;7.45;;;;;;;7.42;100.00;100198.72;5053809;28;20029;-77
2022/01/04 00:37:48;;;;;;;24.90;8.23;;;;;;;7.41;100.00;100195.22;5051148;28;20044;-78
2022/01/04 00:40:13;;;;;;;37.90;7.32;;;;;;;7.42;100.00;100188.13;5053275;28;20029;-77
2022/01/04 00:42:39;;;;;;;18.33;7.35;;;;;;;7.38;100.00;100178.78;5053414;28;20037;-77
2022/01/04 00:45:05;;;;;;;21.00;7.90;;;;;;;7.38;100.00;100178.78;5053063;28;20116;-77
2022/01/04 00:47:44;;;;;;;27.50;7.82;;;;;;;7.40;100.00;100177.69;5052817;28;20040;-77
2022/01/04 00:50:09;;;;;;;23.63;7.45;;;;;;;7.38;100.00;100176.94;5052937;28;20497;-77
2022/01/04 00:52:35;;;;;;;21.77;7.70;;;;;;;7.36;100.00;100170.97;5053039;28;20075;-77
2022/01/04 00:55:00;;;;;;;22.25;7.20;;;;;;;7.36;100.00;100165.66;5051421;28;20071;-78
2022/01/04 00:57:26;;;;;;;23.85;8.20;;;;;;;7.39;100.00;100161.94;5052898;28;20033;-78
2022/01/04 00:59:51;;;;;;;29.15;8.75;;;;;;;7.40;100.00;100163.59;5052897;28;20045;-78
2022/01/04 01:02:16;;;;;;;26.50;7.45;;;;;;;7.40;100.00;100160.94;5053270;28;20162;-78
2022/01/04 01:04:42;;;;;;;24.52;8.10;;;;;;;7.40;100.00;100159.16;5052755;28;20041;-78
2022/01/04 01:07:07;;;;;;;24.25;7.70;;;;;;;7.40;100.00;100139.75;5052706;28;20037;-78
2022/01/04 01:09:39;;;;;;;24.08;8.43;;;;;;;7.36;100.00;100141.84;5052532;28;20432;-78
2022/01/04 01:12:05;;;;;;;28.63;8.20;;;;;;;7.35;100.00;100140.16;5051873;28;20029;-78
2022/01/04 01:14:30;;;;;;;25.15;8.30;;;;;;;7.36;100.00;100144.50;5053285;28;20087;-78
2022/01/04 01:16:55;;;;;;;22.08;8.10;;;;;;;7.36;100.00;100139.22;5053009;28;20060;-78
2022/01/04 01:19:21;;;;;;;26.65;8.65;;;;;;;7.34;100.00;100138.50;5053121;28;20111;-78
2022/01/04 01:21:46;;;;;;;23.17;8.90;;;;;;;7.37;100.00;100132.91;5052642;28;20079;-79
2022/01/04 01:24:12;;;;;;;20.63;9.38;;;;;;;7.41;99.98;100139.63;5052699;28;20470;-78
2022/01/04 01:26:37;;;;;;;20.70;8.27;;;;;;;7.44;99.89;100130.59;5034807;28;20428;-77
2022/01/04 01:29:03;;;;;;;25.75;8.20;;;;;;;7.46;99.54;100135.75;5052548;28;20029;-78
2022/01/04 01:31:30;;;;;;;22.80;7.95;;;;;;;7.44;99.58;100133.22;5052466;28;20036;-78
2022/01/04 01:33:55;;;;;;;20.95;7.82;;;;;;;7.46;99.48;100125.97;5052655;28;20143;-78
2022/01/04 01:36:20;;;;;;;24.77;8.25;;;;;;;7.42;99.28;100132.53;5052353;28;20493;-78
2022/01/04 01:38:46;;;;;;;21.02;8.45;;;;;;;7.38;99.51;100121.38;5052640;28;20044;-78
2022/01/04 01:41:11;;;;;;;17.92;8.00;;;;;;;7.37;99.74;100119.69;5052502;28;20032;-77
2022/01/04 01:43:36;;;;;;;22.42;7.82;;;;;;;7.36;99.65;100115.38;5052622;28;20027;-77
2022/01/04 01:46:02;;;;;;;29.42;9.13;;;;;;;7.35;100.00;100116.34;5052186;28;20487;-77
2022/01/04 01:48:28;;;;;;;22.50;8.30;;;;;;;7.31;99.95;100098.22;5053406;28;20029;-77
2022/01/04 01:50:54;;;;;;;20.45;8.43;;;;;;;7.30;100.00;100100.06;5054636;28;20450;-78
2022/01/04 01:53:21;;;;;;;21.92;8.85;;;;;;;7.28;100.00;100094.03;5056623;28;20120;-77
2022/01/04 01:55:46;;;;;;;18.67;8.90;;;;;;;7.27;100.00;100095.03;5056831;28;20028;-77
2022/01/04 01:58:12;;;;;;;28.10;10.07;;;;;;;7.27;100.00;100102.97;5056146;28;20037;-77
2022/01/04 02:00:38;;;;;;;19.55;8.00;;;;;;;7.29;100.00;100090.44;5055839;28;20025;-77
2022/01/04 02:03:04;;;;;;;17.85;7.57;;;;;;;7.30;99.93;100076.25;5056547;28;20049;-78
2022/01/04 02:05:29;;;;;;;20.90;8.35;;;;;;;7.29;99.99;100079.84;5056664;28;20111;-77
2022/01/04 02:07:54;;;;;;;22.42;8.48;;;;;;;7.27;100.00;100076.50;5054382;28;20389;-77
2022/01/04 02:10:20;;;;;;;18.67;8.77;;;;;;;7.29;99.93;100069.25;5056265;28;20033;-77
2022/01/04 02:12:49;;;;;;;18.83;8.98;;;;;;;7.30;100.00;100064.78;5055820;28;20036;-77
2022/01/04 02:15:18;;;;;;;17.55;7.55;;;;;;;7.31;99.78;100061.19;5055050;28;20064;-77
2022/01/04 02:17:44;;;;;;;22.75;7.88;;;;;;;7.29;99.74;100058.69;5054424;28;20040;-77
2022/01/04 02:20:11;;;;;;;23.42;8.32;;;;;;;7.30;99.65;100057.72;5055526;28;20032;-77
2022/01/04 02:22:37;;;;;;;21.15;7.63;;;;;;;7.31;99.75;100056.72;5055260;28;20124;-77
2022/01/04 02:25:04;;;;;;;26.73;8.60;;;;;;;7.28;99.64;100058.81;5055587;28;20065;-77
2022/01/04 02:27:34;;;;;;;22.27;7.38;;;;;;;7.26;99.67;100050.19;5054170;28;20110;-77
2022/01/04 02:29:59;;;;;;;16.55;7.47;;;;;;;7.25;99.57;100046.69;5055765;28;20037;-77
2022/01/04 02:32:24;;;;;;;15.98;7.72;;;;;;;7.25;99.91;100044.03;5055219;28;20029;-77
2022/01/04 02:34:52;;;;;;;25.02;8.55;;;;;;;7.26;99.81;100031.66;5055089;28;20110;-77
2022/01/04 02:37:19;;;;;;;16.77;7.93;;;;;;;7.25;99.89;100025.53;5055782;28;20112;-78
2022/01/04 02:39:44;;;;;;;34.00;8.50;;;;;;;7.21;99.88;100024.13;5055686;28;20075;-77
2022/01/04 02:42:09;;;;;;;20.25;7.68;;;;;;;7.17;100.00;100022.75;5055002;28;20041;-77
2022/01/04 02:44:35;;;;;;;21.88;7.90;;;;;;;7.16;100.00;100015.75;5055343;28;20550;-78
2022/01/04 02:47:00;;;;;;;16.92;7.50;;;;;;;7.15;100.00;100014.94;5056280;28;20351;-78
2022/01/04 02:49:26;;;;;;;21.15;7.45;;;;;;;7.13;100.00;100003.63;5055176;28;20069;-77
2022/01/04 02:51:51;;;;;;;18.85;7.78;;;;;;;7.14;100.00;100010.63;5054400;28;20108;-77
2022/01/04 02:54:17;;;;;;;19.80;6.43;;;;;;;7.15;100.00;100008.78;5055132;28;20073;-77
2022/01/04 02:56:43;;;;;;;23.02;5.97;;;;;;;7.15;100.00;100001.72;5055007;28;20432;-78
2022/01/04 02:59:08;;;;;;;17.70;6.40;;;;;;;7.17;100.00;100002.41;5055446;28;20032;-77
2022/01/04 03:01:34;;;;;;;17.92;5.97;;;;;;;7.18;100.00;99988.22;5054858;28;20053;-77
2022/01/04 03:03:59;;;;;;;27.77;5.90;;;;;;;7.20;100.00;99986.25;5055324;28;20462;-79
2022/01/04 03:06:24;;;;;;;19.17;6.63;;;;;;;7.15;100.00;99984.97;5055263;28;20021;-77
2022/01/04 03:08:50;;;;;;;20.00;7.20;;;;;;;7.09;100.00;99977.59;5055237;28;20134;-77
2022/01/04 03:11:15;;;;;;;21.95;7.50;;;;;;;7.09;100.00;99977.59;5055448;28;20040;-77
2022/01/04 03:13:41;;;;;;;30.90;8.98;;;;;;;7.06;100.00;99971.63;5054678;28;20029;-77
2022/01/04 03:16:06;;;;;;;23.48;8.93;;;;;;;7.06;100.00;99966.34;5053323;28;20441;-78
2022/01/04 03:18:32;;;;;;;23.55;8.98;;;;;;;7.06;100.00;99968.97;5054571;28;20029;-79
2022/01/04 03:20:57;;;;;;;28.70;10.15;;;;;;;7.10;100.00;99961.59;5055288;28;20041;-78
2022/01/04 03:23:22;;;;;;;20.55;9.60;;;;;;;7.13;100.00;99949.91;5054360;28;20025;-78
2022/01/04 03:25:48;;;;;;;30.15;9.80;;;;;;;7.13;100.00;99941.97;5054405;28;20064;-77
2022/01/04 03:28:16;;;;;;;20.73;10.05;;;;;;;7.16;100.00;99947.81;5054520;28;20040;-77
2022/01/04 03:30:42;;;;;;;24.50;9.88;;;;;;;7.21;100.00;99936.81;5054601;28;20037;-77
2022/01/04 03:33:07;;;;;;;25.48;10.30;;;;;;;7.19;100.00;99930.81;5054327;28;20029;-77
2022/01/04 03:35:33;;;;;;;22.90;10.38;;;;;;;7.16;100.00;99926.63;5054227;28;20040;-77
2022/01/04 03:37:58;;;;;;;28.30;10.07;;;;;;;7.16;100.00;99921.34;5054156;28;20035;-77
2022/01/04 03:40:24;;;;;;;29.17;10.27;;;;;;;7.11;100.00;99922.75;5054022;28;20021;-77
2022/01/04 03:42:49;;;;;;;18.70;10.05;;;;;;;7.09;100.00;99916.75;5052863;28;20040;-77
2022/01/04 03:45:14;;;;;;;21.23;10.52;;;;;;;7.07;100.00;99907.16;5053985;28;20484;-76
2022/01/04 03:47:40;;;;;;;27.85;11.07;;;;;;;7.09;100.00;99919.41;5052603;28;20044;-76
2022/01/04 03:50:06;;;;;;;25.45;11.18;;;;;;;7.06;100.00;99907.28;5053385;28;20401;-77
2022/01/04 03:52:31;;;;;;;27.85;10.98;;;;;;;7.04;100.00;99902.13;5053710;28;20033;-78
2022/01/04 03:54:56;;;;;;;24.15;12.85;;;;;;;7.05;100.00;99889.75;5052991;28;20029;-77
2022/01/04 03:57:22;;;;;;;37.38;12.70;;;;;;;7.06;100.00;99884.34;5053946;28;20354;-77
2022/01/04 03:59:47;;;;;;;26.30;13.18;;;;;;;7.05;100.00;99881.81;5053710;28;20067;-77
2022/01/04 04:02:13;;;;;;;24.70;13.77;;;;;;;7.01;100.00;99886.53;5053660;28;20060;-78
2022/01/04 04:04:38;;;;;;;24.45;12.52;;;;;;;7.02;100.00;99892.69;5053318;28;20051;-78
2022/01/04 04:07:04;;;;;;;21.45;12.18;;;;;;;7.02;100.00;99882.09;5052286;28;20144;-77
2022/01/04 04:09:34;;;;;;;22.23;12.98;;;;;;;7.01;100.00;99883.06;5052201;28;20029;-77
2022/01/04 04:12:00;;;;;;;24.65;12.48;;;;;;;7.02;100.00;99882.94;5052686;28;20484;-78
2022/01/04 04:14:25;;;;;;;24.10;12.68;;;;;;;6.98;100.00;99881.53;5053193;28;20033;-78
2022/01/04 04:16:50;;;;;;;22.42;12.15;;;;;;;6.99;100.00;99880.56;5053367;28;20028;-78
2022/01/04 04:19:16;;;;;;;31.17;13.05;;;;;;;7.00;100.00;99876.97;5053409;28;20119;-78
2022/01/04 04:21:41;;;;;;;24.05;11.50;;;;;;;6.99;100.00;99866.53;5053609;28;20048;-78
2022/01/04 04:24:06;;;;;;;26.95;12.95;;;;;;;7.01;100.00;99868.03;5053268;28;20025;-78
2022/01/04 04:26:32;;;;;;;21.65;11.38;;;;;;;7.05;99.57;99866.78;5052975;28;20033;-77
2022/01/04 04:28:57;;;;;;;25.80;12.98;;;;;;;7.01;99.78;99860.09;5051996;28;20374;-76
2022/01/04 04:31:22;;;;;;;25.58;11.73;;;;;;;6.95;100.00;99854.53;5053525;28;20120;-75
2022/01/04 04:33:48;;;;;;;24.25;13.10;;;;;;;6.87;100.00;99848.13;5053077;28;20461;-75
2022/01/04 04:36:13;;;;;;;31.80;14.60;;;;;;;6.81;100.00;99839.94;5053071;28;20374;-76
2022/01/04 04:38:39;;;;;;;30.90;15.38;;;;;;;6.76;100.00;99837.69;5053019;28;20131;-76
2022/01/04 04:41:04;;;;;;;34.38;16.17;;;;;;;6.70;100.00;99836.47;5053438;28;20037;-76
2022/01/04 04:43:29;;;;;;;32.60;14.73;;;;;;;6.69;100.00;99833.94;5053126;28;20037;-76
2022/01/04 04:45:55;;;;;;;29.15;15.45;;;;;;;6.67;100.00;99828.81;5052761;28;20343;-76
2022/01/04 04:48:20;;;;;;;30.98;15.75;;;;;;;6.64;100.00;99830.88;5052653;28;20029;-76
2022/01/04 04:50:46;;;;;;;32.40;15.55;;;;;;;6.63;100.00;99837.97;5052906;28;20033;-75
2022/01/04 04:53:11;;;;;;;34.38;14.95;;;;;;;6.64;100.00;99823.78;5052067;28;20082;-77
2022/01/04 04:55:36;;;;;;;24.70;14.05;;;;;;;6.64;100.00;99829.09;5053233;28;20028;-76
2022/01/04 04:58:02;;;;;;;29.88;15.00;;;;;;;6.65;100.00;99833.38;5053072;28;20029;-76
2022/01/04 05:00:27;;;;;;;31.70;13.98;;;;;;;6.66;100.00;99834.22;5052863;28;20037;-75
2022/01/04 05:02:53;;;;;;;39.20;14.88;;;;;;;6.63;100.00;99831.88;5053407;28;20048;-76
2022/01/04 05:05:18;;;;;;;31.17;12.57;;;;;;;6.64;100.00;99833.50;5052442;28;20112;-76
2022/01/04 05:07:43;;;;;;;26.23;13.52;;;;;;;6.64;100.00;99817.66;5051601;28;20035;-77
2022/01/04 05:10:09;;;;;;;31.17;11.98;;;;;;;6.65;100.00;99814.03;5052718;28;20029;-76
2022/01/04 05:12:35;;;;;;;24.05;12.27;;;;;;;6.64;100.00;99815.00;5052650;28;20029;-76
2022/01/04 05:15:01;;;;;;;23.08;12.27;;;;;;;6.65;100.00;99812.22;5051722;28;20040;-76
2022/01/04 05:17:27;;;;;;;22.05;11.98;;;;;;;6.63;100.00;99808.91;5051339;28;20550;-76
2022/01/04 05:19:53;;;;;;;24.75;10.98;;;;;;;6.62;100.00;99803.75;5052705;28;20029;-76
2022/01/04 05:22:18;;;;;;;25.92;11.82;;;;;;;6.60;100.00;99803.88;5053313;28;20401;-76
2022/01/04 05:24:44;;;;;;;31.00;12.35;;;;;;;6.60;100.00;99813.59;5056617;28;20040;-76
2022/01/04 05:27:09;;;;;;;24.38;11.20;;;;;;;6.59;100.00;99815.44;5056681;28;20091;-75
2022/01/04 05:29:35;;;;;;;19.95;10.15;;;;;;;6.63;100.00;99794.84;5056504;28;20492;-75
2022/01/04 05:32:00;;;;;;;26.33;10.45;;;;;;;6.62;100.00;99798.47;5057432;28;20033;-76
2022/01/04 05:34:26;;;;;;;23.85;10.98;;;;;;;6.64;100.00;99800.00;5056563;28;20500;-76
2022/01/04 05:36:52;;;;;;;22.83;10.70;;;;;;;6.65;100.00;99795.53;5056343;28;20120;-76
2022/01/04 05:39:18;;;;;;;23.88;10.75;;;;;;;6.66;100.00;99789.28;5056385;28;20488;-80
2022/01/04 05:41:43;;;;;;;20.30;10.25;;;;;;;6.66;100.00;99789.28;5056103;28;20060;-76
2022/01/04 05:44:09;;;;;;;23.45;11.05;;;;;;;6.66;100.00;99802.50;5056365;28;20430;-75
2022/01/04 05:46:35;;;;;;;24.60;10.60;;;;;;;6.68;100.00;99793.44;5056236;28;20033;-75
2022/01/04 05:49:00;;;;;;;24.20;10.77;;;;;;;6.66;100.00;99794.56;5056152;28;20029;-77
2022/01/04 05:51:25;;;;;;;25.60;11.82;;;;;;;6.62;100.00;99778.16;5055768;28;20029;-75
2022/01/04 05:53:51;;;;;;;21.30;10.68;;;;;;;6.60;100.00;99777.47;5056273;28;20029;-76
2022/01/04 05:56:16;;;;;;;23.35;11.93;;;;;;;6.61;100.00;99770.34;5056123;28;20036;-75
2022/01/04 05:58:42;;;;;;;24.55;12.88;;;;;;;6.59;100.00;99777.59;5054719;28;20434;-76
2022/01/04 06:01:07;;;;;;;19.77;11.82;;;;;;;6.58;100.00;99775.91;5056597;28;20045;-75
2022/01/04 06:03:32;;;;;;;27.33;11.95;;;;;;;6.59;100.00;99778.44;5055953;28;20090;-77
2022/01/04 06:05:59;;;;;;;29.35;12.48;;;;;;;6.59;100.00;99775.78;5056017;28;20071;-75
2022/01/04 06:08:30;;;;;;;21.70;11.73;;;;;;;6.56;100.00;99765.50;5055932;28;20037;-76
2022/01/04 06:10:55;;;;;;;22.20;12.52;;;;;;;6.57;100.00;99763.66;5055804;28;20489;-78
2022/01/04 06:16:04;;;;;;;22.67;10.88;;;;;;;6.59;100.00;99770.50;5056113;28;20568;-76
2022/01/04 06:18:30;;;;;;;23.02;10.88;;;;;;;6.63;100.00;99760.50;5055602;28;20033;-76
2022/01/04 06:20:56;;;;;;;26.65;10.93;;;;;;;6.67;100.00;99767.16;5055276;28;20067;-76
2022/01/04 06:23:21;;;;;;;22.13;10.52;;;;;;;6.70;100.00;99765.06;5055736;28;20033;-76
2022/01/04 06:25:47;;;;;;;14.90;10.27;;;;;;;6.74;100.00;99757.69;5055146;28;20044;-76
2022/01/04 06:28:13;;;;;;;23.23;11.45;;;;;;;6.74;100.00;99751.56;5056167;28;20082;-75
2022/01/04 06:30:38;;;;;;;23.17;11.05;;;;;;;6.73;100.00;99740.16;5055231;28;20164;-76
2022/01/04 06:33:03;;;;;;;29.40;11.52;;;;;;;6.75;100.00;99742.66;5055533;28;20029;-76
2022/01/04 06:35:33;;;;;;;22.02;10.20;;;;;;;6.73;100.00;99723.47;5054828;28;20033;-76
2022/01/04 06:37:58;;;;;;;21.08;10.13;;;;;;;6.75;100.00;99719.72;5055216;28;20117;-75
2022/01/04 06:40:24;;;;;;;23.60;10.80;;;;;;;6.75;100.00;99718.84;5055163;28;20531;-74
2022/01/04 06:42:49;;;;;;;22.45;10.48;;;;;;;6.76;100.00;99717.88;5054944;28;20075;-73
2022/01/04 06:45:15;;;;;;;18.35;9.98;;;;;;;6.77;100.00;99712.47;5055173;28;20082;-75
2022/01/04 06:47:41;;;;;;;30.05;10.98;;;;;;;6.75;100.00;99719.72;5037165;28;20033;-75
2022/01/04 06:50:07;;;;;;;16.90;9.88;;;;;;;6.76;100.00;99725.81;5055086;28;20102;-75
2022/01/04 06:52:33;;;;;;;19.25;9.52;;;;;;;6.77;100.00;99727.50;5055232;28;20024;-74
2022/01/04 06:54:58;;;;;;;19.80;10.55;;;;;;;6.75;100.00;99718.84;5054935;28;20157;-74
2022/01/04 06:57:24;;;;;;;31.88;11.38;;;;;;;6.71;100.00;99728.91;5054792;28;20033;-75
2022/01/04 06:59:49;;;;;;;20.95;10.73;;;;;;;6.73;100.00;99731.41;5054728;28;20053;-74
2022/01/04 07:02:14;;;;;;;32.78;12.02;;;;;;;6.71;100.00;99713.84;5054377;28;20053;-74
2022/01/04 07:04:40;;;;;;;30.70;12.07;;;;;;;6.72;100.00;99706.78;5053777;28;20037;-74
2022/01/04 07:07:05;;;;;;;24.65;11.25;;;;;;;6.73;100.00;99715.53;5055063;28;20033;-74
2022/01/04 07:09:30;;;;;;;21.95;10.77;;;;;;;6.74;100.00;99709.28;5055683;28;20075;-73
2022/01/04 07:11:57;;;;;;;23.25;10.48;;;;;;;6.70;100.00;99688.41;5054410;28;20036;-73
2022/01/04 07:14:22;;;;;;;25.25;10.05;;;;;;;6.64;100.00;99689.00;5055357;28;20124;-73
2022/01/04 07:16:48;;;;;;;24.65;9.77;;;;;;;6.60;100.00;99690.25;5054805;28;20061;-73
2022/01/04 07:19:15;;;;;;;23.10;9.88;;;;;;;6.60;100.00;99699.94;5054825;28;20033;-72
2022/01/04 07:21:40;;;;;;;24.92;10.40;;;;;;;6.56;100.00;99702.06;5055295;28;20033;-74
2022/01/04 07:24:06;;;;;;;27.77;11.00;;;;;;;6.58;100.00;99704.56;5054425;28;20065;-74
2022/01/04 07:26:31;;;;;;;21.40;10.75;;;;;;;6.58;100.00;99700.09;5054616;28;20067;-79
2022/01/04 07:28:56;;;;;;;28.17;10.98;;;;;;;6.59;100.00;99693.03;5054511;28;20036;-73
2022/01/04 07:31:22;;;;;;;26.88;11.20;;;;;;;6.58;100.00;99694.81;5054172;28;20029;-74
2022/01/04 07:33:47;;;;;;;26.13;10.57;;;;;;;6.57;100.00;99701.09;5054852;28;20090;-74
2022/01/04 07:36:14;;;;;;;28.73;10.45;;;;;;;6.58;100.00;99699.28;5054634;28;20048;-73
2022/01/04 07:38:39;;;;;;;26.75;11.52;;;;;;;6.56;100.00;99717.91;5054147;28;20055;-73
2022/01/04 07:41:05;;;;;;;33.30;10.50;;;;;;;6.54;100.00;99719.88;5054266;28;20029;-72
2022/01/04 07:43:31;;;;;;;39.72;10.75;;;;;;;6.53;100.00;99716.38;5054152;28;20024;-73
2022/01/04 07:45:57;;;;;;;21.45;8.48;;;;;;;6.52;100.00;99703.31;5053908;28;20075;-72
2022/01/04 07:48:22;;;;;;;21.77;8.50;;;;;;;6.49;100.00;99693.03;5054080;28;20132;-73
2022/01/04 07:50:49;;;;;;;26.65;7.03;;;;;;;6.43;100.00;99699.69;5053739;28;20033;-73
2022/01/04 07:53:15;;;;;;;22.35;5.70;;;;;;;6.35;100.00;99704.84;5052759;28;20033;-73
2022/01/04 07:55:40;;;;;;;15.75;4.68;;;;;;;6.29;100.00;99713.34;5054327;28;20079;-72
2022/01/04 07:58:05;;;;;;;20.70;4.63;;;;;;;6.21;100.00;99716.69;5053814;28;20024;-72
2022/01/04 08:00:31;;;;;;;18.27;4.03;;;;;;;6.13;100.00;99716.53;5054293;28;20386;-73
2022/01/04 08:02:56;;;;;;;18.15;4.20;;;;;;;6.07;100.00;99715.25;5053573;28;20088;-72
2022/01/04 08:05:23;;;;;;;17.77;4.20;;;;;;;6.01;100.00;99713.19;5053970;28;20116;-72
2022/01/04 08:07:50;;;;;;;20.77;3.97;;;;;;;5.95;100.00;99714.53;5053221;28;20465;-74
2022/01/04 08:10:16;;;;;;;19.33;3.55;;;;;;;5.93;100.00;99716.47;5053458;28;20056;-73
2022/01/04 08:12:42;;;;;;;17.85;3.83;;;;;;;5.90;100.00;99713.28;5053757;28;20086;-74
2022/01/04 08:15:10;;;;;;;21.33;4.20;;;;;;;5.89;100.00;99711.59;5053315;28;20119;-73
2022/01/04 08:17:36;;;;;;;14.07;3.17;;;;;;;5.90;100.00;99722.03;5053612;28;20040;-72
2022/01/04 08:20:03;;;;;;;15.35;3.42;;;;;;;5.94;100.00;99733.13;5053150;28;20033;-74
2022/01/04 08:22:32;;;;;;;18.65;3.30;;;;;;;5.94;100.00;99734.00;5052063;28;20032;-75
2022/01/04 08:25:01;;;;;;;15.60;2.97;;;;;;;5.97;100.00;99741.66;5052945;28;20532;-73
2022/01/04 08:27:26;;;;;;;22.27;3.45;;;;;;;5.96;100.00;99741.78;5053324;28;20061;-72
2022/01/04 08:29:52;;;;;;;14.35;2.75;;;;;;;5.98;100.00;99753.88;5053215;28;20107;-72
2022/01/04 08:32:17;;;;;;;14.90;3.17;;;;;;;5.98;100.00;99748.59;5053700;28;20064;-73
2022/01/04 08:34:43;;;;;;;16.63;3.63;;;;;;;6.01;100.00;99750.16;5053441;28;20473;-72
2022/01/04 08:37:08;;;;;;;15.60;3.33;;;;;;;6.06;100.00;99757.66;5053530;28;20025;-75
2022/01/04 08:39:33;;;;;;;18.98;3.92;;;;;;;6.10;100.00;99754.59;5052984;28;20397;-72
2022/01/04 08:42:01;;;;;;;18.73;4.40;;;;;;;6.14;100.00;99756.00;5052849;28;20041;-73
2022/01/04 08:44:27;;;;;;;18.23;3.83;;;;;;;6.19;100.00;99766.16;5051878;28;20086;-72
2022/01/04 08:46:53;;;;;;;24.88;4.30;;;;;;;6.21;100.00;99774.81;5053736;28;20040;-72
2022/01/04 08:49:19;;;;;;;19.77;3.83;;;;;;;6.25;100.00;99770.06;5053871;28;20033;-72
2022/01/04 08:51:45;;;;;;;24.20;5.35;;;;;;;6.27;100.00;99770.75;5053049;28;20543;-73
2022/01/04 08:54:11;;;;;;;23.33;4.43;;;;;;;6.32;100.00;99764.09;5053046;28;20025;-72
2022/01/04 08:56:37;;;;;;;27.63;4.30;;;;;;;6.39;100.00;99771.47;5052071;28;20076;-72
2022/01/04 08:59:05;;;;;;;25.80;4.70;;;;;;;6.44;100.00;99756.88;5059344;28;20052;-72
2022/01/04 09:01:31;;;;;;;31.30;4.28;;;;;;;6.46;100.00;99754.91;5060182;28;20053;-73
2022/01/04 09:03:58;;;;;;;30.95;4.68;;;;;;;6.51;100.00;99759.81;5059301;28;20477;-72
2022/01/04 09:06:24;;;;;;;28.75;3.90;;;;;;;6.52;100.00;99757.03;5059241;28;20422;-72
2022/01/04 09:08:51;;;;;;;24.27;3.60;;;;;;;6.58;100.00;99750.31;5059582;28;20086;-74
2022/01/04 09:11:21;;;;;;;29.88;4.00;;;;;;;6.61;100.00;99749.22;5059449;28;20021;-74
2022/01/04 09:13:46;;;;;;;22.98;4.18;;;;;;;6.65;100.00;99756.72;5059746;28;20048;-76
2022/01/04 09:18:43;;;;;;;22.58;3.45;;;;;;;6.73;100.00;99758.66;5059516;28;20469;-73
2022/01/04 09:21:29;;;;;;;27.13;3.95;;;;;;;6.75;100.00;99753.22;5059290;28;20048;-73
2022/01/04 09:23:56;;;;;;;27.65;4.10;;;;;;;6.75;100.00;99750.56;5059377;28;20045;-74
2022/01/04 09:26:23;;;;;;;37.13;4.10;;;;;;;6.69;100.00;99750.19;5059241;28;20123;-75
2022/01/04 09:28:50;;;;;;;25.65;4.00;;;;;;;6.68;100.00;99761.72;5058938;28;20033;-74
2022/01/04 09:31:15;;;;;;;24.10;3.90;;;;;;;6.70;100.00;99759.78;5058840;28;20056;-77
2022/01/04 09:33:41;;;;;;;18.70;4.18;;;;;;;6.71;100.00;99761.44;5059233;28;20429;-72
2022/01/04 09:36:07;;;;;;;16.77;3.17;;;;;;;6.78;99.61;99766.19;5059824;28;20404;-72
2022/01/04 09:38:33;;;;;;;26.58;4.10;;;;;;;6.83;98.86;99761.31;5059528;28;20047;-73
2022/01/04 09:40:58;;;;;;;28.52;4.68;;;;;;;6.88;98.72;99769.63;5059236;28;20457;-75
2022/01/04 09:43:25;;;;;;;21.05;4.18;;;;;;;6.89;97.83;99772.13;5058359;28;20462;-74
2022/01/04 09:45:52;;;;;;;23.02;4.07;;;;;;;6.92;97.70;99767.56;5059010;28;20029;-73
2022/01/04 09:48:19;;;;;;;26.70;4.55;;;;;;;6.92;97.38;99771.03;5059645;28;20368;-75
2022/01/04 09:50:45;;;;;;;22.38;3.70;;;;;;;6.91;96.87;99773.81;5059347;28;20040;-74
2022/01/04 09:53:17;;;;;;;24.75;4.22;;;;;;;6.92;96.78;99778.97;5059372;28;20036;-72
2022/01/04 09:55:43;;;;;;;26.55;3.85;;;;;;;6.94;96.90;99778.81;5059162;28;20081;-72
2022/01/04 09:58:10;;;;;;;26.77;3.78;;;;;;;6.93;97.25;99777.16;5059294;28;20388;-72
2022/01/04 10:00:35;;;;;;;30.27;4.80;;;;;;;6.87;97.49;99775.91;5058241;28;20029;-72
2022/01/04 10:03:18;;;;;;;25.73;3.78;;;;;;;6.87;97.23;99776.75;5058732;28;20133;-73
2022/01/04 10:05:44;;;;;;;26.25;4.00;;;;;;;6.85;96.06;99772.56;5059237;28;20126;-74
2022/01/04 10:08:11;;;;;;;21.25;4.13;;;;;;;6.85;95.84;99770.78;5059019;28;20315;-73
2022/01/04 10:10:38;;;;;;;27.58;4.65;;;;;;;6.85;96.47;99769.91;5053224;28;20032;-73
2022/01/04 10:13:08;;;;;;;20.25;3.78;;;;;;;6.85;96.51;99768.13;5055452;28;20041;-76
2022/01/04 10:15:35;;;;;;;21.95;3.83;;;;;;;6.92;95.61;99773.66;5055320;28;20440;-77
2022/01/04 10:18:23;;;;;;;18.67;3.25;;;;;;;6.95;95.57;99777.84;5055577;28;20098;-73
2022/01/04 10:21:04;;;;;;;14.77;3.28;;;;;;;6.90;95.24;99773.00;5055829;28;20377;-72
2022/01/04 10:23:30;;;;;;;25.20;3.20;;;;;;;6.84;95.52;99777.03;5056071;28;20033;-72
2022/01/04 10:26:06;;;;;;;16.10;2.40;;;;;;;6.78;96.05;99776.78;5056211;28;20108;-73
2022/01/04 10:28:39;;;;;;;10.18;1.83;;;;;;;6.71;96.45;99765.91;5055985;28;20032;-74
2022/01/04 10:31:07;;;;;;;8.90;2.00;;;;;;;6.59;96.45;99775.78;5054918;28;20059;-74
2022/01/04 10:33:34;;;;;;;12.75;1.70;;;;;;;6.49;96.94;99778.44;5055377;28;20036;-73
2022/01/04 10:36:05;;;;;;;13.65;1.70;;;;;;;6.43;96.96;99767.56;5055079;28;20485;-74
2022/01/04 10:38:35;;;;;;;13.77;1.90;;;;;;;6.33;97.14;99765.75;5055922;28;20021;-75
2022/01/04 10:41:02;;;;;;;13.23;2.08;;;;;;;6.29;97.37;99771.47;5055389;28;20078;-73
2022/01/04 10:43:53;;;;;;;10.63;1.90;;;;;;;6.27;97.68;99768.97;5054918;28;20103;-73
2022/01/04 10:46:33;;;;;;;11.23;1.77;;;;;;;6.24;97.80;99769.25;5055411;28;20071;-72
2022/01/04 10:48:59;;;;;;;9.38;1.58;;;;;;;6.24;97.57;99777.16;5055377;28;20695;-74
2022/01/04 10:51:26;;;;;;;8.38;1.58;;;;;;;6.24;97.61;99782.44;5055096;28;20040;-74
2022/01/04 10:54:00;;;;;;;9.75;1.10;;;;;;;6.23;97.48;99779.94;5055084;28;20029;-74
2022/01/04 10:56:31;;;;;;;12.27;1.63;;;;;;;6.19;97.39;99789.94;5055632;28;20047;-74
2022/01/04 10:59:02;;;;;;;9.05;1.27;;;;;;;6.12;96.54;99794.94;5055514;28;20112;-74
2022/01/04 11:01:39;;;;;;;7.57;1.38;;;;;;;6.05;96.42;99792.97;5054627;28;20048;-77
2022/01/04 11:04:11;;;;;;;6.75;1.23;;;;;;;6.07;96.31;99794.50;5054849;28;20048;-73
2022/01/04 11:06:38;;;;;;;10.93;2.00;;;;;;;6.19;96.30;99795.22;5054561;28;20488;-73
2022/01/04 11:09:05;;;;;;;5.28;1.25;;;;;;;6.22;95.46;99804.69;5054484;28;20107;-75
2022/01/04 11:11:30;;;;;;;7.13;1.13;;;;;;;6.28;95.85;99804.13;5055060;28;20078;-75
2022/01/04 11:13:55;;;;;;;10.93;1.40;;;;;;;6.25;94.60;99812.34;5054529;28;20420;-79
2022/01/04 11:16:23;;;;;;;11.55;2.22;;;;;;;6.21;94.68;99809.13;5054724;28;20033;-77
2022/01/04 11:18:52;;;;;;;8.93;2.13;;;;;;;6.14;94.93;99816.75;5054197;28;20513;-74
2022/01/04 11:21:24;;;;;;;13.38;1.70;;;;;;;6.08;95.71;99825.22;5053695;28;20044;-75
2022/01/04 11:23:51;;;;;;;9.00;1.55;;;;;;;5.98;96.23;99827.00;5054041;28;20100;-74